createdAt,value
2022-08-27T00:01:23.219Z,101771.84
2022-08-27T00:03:50.288Z,101769.94
2022-08-27T00:06:19.321Z,101767.34
2022-08-27T00:08:47.561Z,101773.53
2022-08-27T00:11:16.817Z,101771.13
2022-08-27T00:13:46.369Z,101773.38
2022-08-27T00:16:15.576Z,101765.09
2022-08-27T00:18:43.937Z,101764.06
2022-08-27T00:21:16.132Z,101772.84
2022-08-27T00:23:42.701Z,101762.66
2022-08-27T00:26:10.568Z,101760.59
2022-08-27T00:28:37.520Z,101755.94
2022-08-27T00:31:04.118Z,101765.06
2022-08-27T00:33:35.699Z,101754.19
2022-08-27T00:36:03.436Z,101757.47
2022-08-27T00:38:32.449Z,101749.88
2022-08-27T00:41:01.171Z,101759.00
2022-08-27T00:43:34.939Z,101750.53
2022-08-27T00:46:22.959Z,101745.38
2022-08-27T00:48:53.026Z,101753.97
2022-08-27T00:51:21.511Z,101751.94
2022-08-27T00:53:50.079Z,101748.28
2022-08-27T00:56:21.570Z,101748.63
2022-08-27T00:58:51.923Z,101755.22
2022-08-27T01:01:24.512Z,101758.84
2022-08-27T01:03:55.198Z,101759.69
2022-08-27T01:06:24.127Z,101756.59
2022-08-27T01:08:54.533Z,101751.41
2022-08-27T01:11:21.426Z,101753.31
2022-08-27T01:14:00.030Z,101759.34
2022-08-27T01:16:37.203Z,101753.31
2022-08-27T01:19:08.103Z,101749.38
2022-08-27T01:21:55.705Z,101753.84
2022-08-27T01:24:30.444Z,101749.56
2022-08-27T01:26:59.501Z,101752.50
2022-08-27T01:29:26.846Z,101741.81
2022-08-27T01:31:59.971Z,101744.91
2022-08-27T01:34:31.002Z,101739.56
2022-08-27T01:36:57.657Z,101748.38
2022-08-27T01:39:26.842Z,101746.13
2022-08-27T01:41:54.414Z,101748.22
2022-08-27T01:44:21.114Z,101753.22
2022-08-27T01:46:48.015Z,101742.34
2022-08-27T01:49:14.653Z,101739.09
2022-08-27T01:51:41.793Z,101726.69
2022-08-27T01:54:08.341Z,101742.72
2022-08-27T01:56:34.889Z,101740.31
2022-08-27T01:59:01.471Z,101744.09
2022-08-27T02:01:28.210Z,101734.28
2022-08-27T02:03:55.772Z,101738.06
2022-08-27T02:06:24.675Z,101727.03
2022-08-27T02:08:51.205Z,101730.47
2022-08-27T02:11:19.879Z,101728.25
2022-08-27T02:13:49.250Z,101732.75
2022-08-27T02:16:16.285Z,101734.81
2022-08-27T02:18:42.926Z,101739.44
2022-08-27T02:21:09.535Z,101685.41
2022-08-27T02:23:36.469Z,101729.66
2022-08-27T02:26:02.996Z,101730.84
2022-08-27T02:28:29.547Z,101729.13
2022-08-27T02:30:56.194Z,101722.91
2022-08-27T02:33:22.856Z,101733.28
2022-08-27T02:35:51.702Z,101721.06
2022-08-27T02:38:18.414Z,101726.41
2022-08-27T02:40:47.495Z,101719.84
2022-08-27T02:43:14.179Z,101726.19
2022-08-27T02:45:42.964Z,101722.59
2022-08-27T02:48:12.208Z,101720.69
2022-08-27T02:50:39.183Z,101699.19
2022-08-27T02:53:06.540Z,101712.97
2022-08-27T02:55:33.397Z,101714.66
2022-08-27T02:57:59.915Z,101708.81
2022-08-27T03:00:28.971Z,101701.94
2022-08-27T03:02:56.501Z,101722.75
2022-08-27T03:05:23.827Z,101714.66
2022-08-27T03:07:50.853Z,101715.34
2022-08-27T03:10:20.132Z,101685.75
2022-08-27T03:12:47.329Z,101720.50
2022-08-27T03:15:19.215Z,101716.06
2022-08-27T03:18:04.506Z,101716.06
2022-08-27T03:20:31.394Z,101720.84
2022-08-27T03:22:58.264Z,101711.06
2022-08-27T03:25:25.625Z,101712.59
2022-08-27T03:27:54.511Z,101718.81
2022-08-27T03:30:23.150Z,101721.41
2022-08-27T03:32:55.665Z,101725.34
2022-08-27T03:35:24.812Z,101713.66
2022-08-27T03:37:51.688Z,101726.03
2022-08-27T03:40:19.742Z,101726.03
2022-08-27T03:42:46.433Z,101721.41
2022-08-27T03:45:13.080Z,101723.81
2022-08-27T03:47:42.990Z,101729.66
2022-08-27T03:50:11.222Z,101722.94
2022-08-27T03:52:40.387Z,101726.38
2022-08-27T03:55:08.621Z,101728.97
2022-08-27T03:57:36.014Z,101733.09
2022-08-27T04:00:02.941Z,101723.59
2022-08-27T04:02:29.625Z,101701.06
2022-08-27T04:04:57.783Z,101727.09
2022-08-27T04:07:24.386Z,101725.50
2022-08-27T04:09:50.920Z,101721.22
2022-08-27T04:12:17.529Z,101722.94
2022-08-27T04:14:44.097Z,101720.19
2022-08-27T04:17:13.105Z,101714.16
2022-08-27T04:19:39.659Z,101724.84
2022-08-27T04:22:07.934Z,101719.31
2022-08-27T04:24:36.536Z,101727.78
2022-08-27T04:27:04.537Z,101724.00
2022-08-27T04:29:31.637Z,101725.88
2022-08-27T04:31:59.326Z,101719.66
2022-08-27T04:34:28.342Z,101719.66
2022-08-27T04:36:56.724Z,101713.31
2022-08-27T04:39:25.791Z,101719.50
2022-08-27T04:41:58.571Z,101716.75
2022-08-27T04:44:31.034Z,101722.25
2022-08-27T04:47:01.534Z,101727.09
2022-08-27T04:49:29.026Z,101729.50
2022-08-27T04:51:57.844Z,101714.31
2022-08-27T04:54:32.313Z,101734.47
2022-08-27T04:56:59.792Z,101726.38
2022-08-27T04:59:26.545Z,101728.09
2022-08-27T05:01:55.579Z,101728.28
2022-08-27T05:04:22.213Z,101739.97
2022-08-27T05:06:50.542Z,101733.63
2022-08-27T05:09:21.222Z,101725.50
2022-08-27T05:11:52.679Z,101730.69
2022-08-27T05:14:20.418Z,101731.53
2022-08-27T05:16:47.649Z,101740.53
2022-08-27T05:19:14.802Z,101742.91
2022-08-27T05:21:46.994Z,101736.03
2022-08-27T05:24:14.243Z,101737.59
2022-08-27T05:26:40.926Z,101749.13
2022-08-27T05:29:10.538Z,101743.28
2022-08-27T05:31:39.106Z,101741.88
2022-08-27T05:34:10.457Z,101748.97
2022-08-27T05:36:48.995Z,101744.78
2022-08-27T05:39:16.934Z,101744.13
2022-08-27T05:41:43.710Z,101746.19
2022-08-27T05:46:57.030Z,101753.78
2022-08-27T05:49:23.584Z,101750.50
2022-08-27T05:51:50.518Z,101756.69
2022-08-27T05:54:19.628Z,101744.09
2022-08-27T05:56:47.734Z,101748.75
2022-08-27T05:59:34.581Z,101753.75
2022-08-27T06:02:02.536Z,101745.31
2022-08-27T06:04:29.290Z,101755.28
2022-08-27T06:06:58.296Z,101749.97
2022-08-27T06:09:28.898Z,101753.38
2022-08-27T06:12:02.627Z,101747.47
2022-08-27T06:14:30.393Z,101744.19
2022-08-27T06:16:57.040Z,101764.16
2022-08-27T06:19:24.386Z,101763.44
2022-08-27T06:22:00.314Z,101766.66
2022-08-27T06:24:39.522Z,101751.47
2022-08-27T06:27:06.397Z,101771.19
2022-08-27T06:29:35.195Z,101769.06
2022-08-27T06:32:01.956Z,101772.88
2022-08-27T06:34:28.516Z,101767.72
2022-08-27T06:36:55.090Z,101761.38
2022-08-27T06:39:23.922Z,101754.31
2022-08-27T06:41:50.737Z,101751.84
2022-08-27T06:44:17.598Z,101758.31
2022-08-27T06:46:44.669Z,101748.56
2022-08-27T06:49:13.715Z,101751.59
2022-08-27T06:51:45.737Z,101747.31
2022-08-27T06:54:14.024Z,101740.59
2022-08-27T06:56:42.773Z,101748.16
2022-08-27T06:59:16.082Z,101738.63
2022-08-27T07:01:46.073Z,101748.81
2022-08-27T07:04:17.993Z,101742.16
2022-08-27T07:06:44.828Z,101728.53
2022-08-27T07:09:12.160Z,101736.78
2022-08-27T07:11:38.765Z,101746.97
2022-08-27T07:14:06.768Z,101738.78
2022-08-27T07:16:33.861Z,101746.34
2022-08-27T07:19:05.465Z,101739.75
2022-08-27T07:21:33.833Z,101741.53
2022-08-27T07:24:04.682Z,101757.03
2022-08-27T07:26:36.251Z,101745.47
2022-08-27T07:29:05.207Z,101749.91
2022-08-27T07:31:35.553Z,101752.16
2022-08-27T07:34:08.204Z,101758.84
2022-08-27T07:36:35.481Z,101760.72
2022-08-27T07:39:02.268Z,101759.41
2022-08-27T07:41:53.543Z,101760.31
2022-08-27T07:44:31.037Z,101762.38
2022-08-27T07:47:01.700Z,101761.44
2022-08-27T07:49:29.229Z,101760.25
2022-08-27T07:51:55.867Z,101765.66
2022-08-27T07:54:23.208Z,101761.97
2022-08-27T07:56:55.917Z,101763.97
2022-08-27T07:59:27.425Z,101761.56
2022-08-27T08:01:56.213Z,101769.09
2022-08-27T08:04:23.413Z,101775.41
2022-08-27T08:06:51.018Z,101779.91
2022-08-27T08:09:17.654Z,101774.94
2022-08-27T08:11:46.565Z,101780.94
2022-08-27T08:14:15.331Z,101782.66
2022-08-27T08:16:41.992Z,101783.34
2022-08-27T08:19:09.439Z,101773.22
2022-08-27T08:21:36.451Z,101782.63
2022-08-27T08:24:03.466Z,101782.53
2022-08-27T08:26:32.460Z,101777.16
2022-08-27T08:29:00.758Z,101781.63
2022-08-27T08:31:27.480Z,101778.03
2022-08-27T08:33:54.877Z,101787.94
2022-08-27T08:36:21.484Z,101790.38
2022-08-27T08:38:48.338Z,101790.28
2022-08-27T08:41:51.565Z,101794.38
2022-08-27T08:44:43.873Z,101789.03
2022-08-27T08:47:16.760Z,101777.84
2022-08-27T08:49:52.165Z,101796.53
2022-08-27T08:52:48.401Z,101799.09
2022-08-27T08:55:37.155Z,101793.53
2022-08-27T08:58:13.097Z,101793.31
2022-08-27T09:00:43.879Z,101792.03
2022-08-27T09:03:16.148Z,101802.06
2022-08-27T09:05:53.659Z,101795.44
2022-08-27T09:08:35.203Z,101800.56
2022-08-27T09:11:09.006Z,101791.25
2022-08-27T09:13:44.715Z,101792.13
2022-08-27T09:16:11.480Z,101798.84
2022-08-27T09:18:40.820Z,101789.81
2022-08-27T09:21:33.928Z,101784.63
2022-08-27T09:24:12.346Z,101777.81
2022-08-27T09:26:42.876Z,101789.06
2022-08-27T09:29:15.915Z,101796.84
2022-08-27T09:32:00.564Z,101788.81
2022-08-27T09:34:39.955Z,101786.88
2022-08-27T09:37:08.776Z,101788.44
2022-08-27T09:39:48.753Z,101792.13
2022-08-27T09:42:44.466Z,101775.53
2022-08-27T09:45:29.732Z,101797.75
2022-08-27T09:48:10.217Z,101796.94
2022-08-27T09:50:46.602Z,101779.38
2022-08-27T09:53:28.910Z,101791.75
2022-08-27T09:55:58.969Z,101798.66
2022-08-27T09:58:31.943Z,101794.81
2022-08-27T10:01:26.471Z,101794.38
2022-08-27T10:04:13.622Z,101793.28
2022-08-27T10:06:52.278Z,101781.31
2022-08-27T10:09:36.164Z,101798.00
2022-08-27T10:12:14.229Z,101804.63
2022-08-27T10:14:47.409Z,101805.94
2022-08-27T10:17:32.619Z,101799.50
2022-08-27T10:20:29.606Z,101783.00
2022-08-27T10:23:26.775Z,101795.25
2022-08-27T10:26:24.997Z,101788.38
2022-08-27T10:29:35.784Z,101778.50
2022-08-27T10:32:05.543Z,101796.53
2022-08-27T10:34:57.042Z,101780.84
2022-08-27T10:37:40.593Z,101773.50
2022-08-27T10:40:08.447Z,101787.44
2022-08-27T10:42:58.038Z,101781.91
2022-08-27T10:45:43.177Z,101786.19
2022-08-27T10:48:29.289Z,101779.53
2022-08-27T10:51:19.538Z,101789.16
2022-08-27T10:54:05.988Z,101778.63
2022-08-27T10:57:24.536Z,101780.09
2022-08-27T10:59:56.063Z,101777.06
2022-08-27T11:02:28.531Z,101778.81
2022-08-27T11:05:01.333Z,101767.06
2022-08-27T11:07:38.336Z,101786.31
2022-08-27T11:10:21.545Z,101772.41
2022-08-27T11:12:53.332Z,101777.16
2022-08-27T11:15:29.037Z,101772.22
2022-08-27T11:18:08.102Z,101779.25
2022-08-27T11:20:58.458Z,101776.19
2022-08-27T11:23:58.455Z,101774.69
2022-08-27T11:26:25.401Z,101765.00
2022-08-27T11:28:59.749Z,101770.94
2022-08-27T11:31:48.466Z,101770.63
2022-08-27T11:34:35.353Z,101762.44
2022-08-27T11:37:21.749Z,101761.06
2022-08-27T11:40:21.837Z,101769.13
2022-08-27T11:43:01.848Z,101764.28
2022-08-27T11:45:34.889Z,101771.66
2022-08-27T11:48:14.849Z,101767.66
2022-08-27T11:50:41.550Z,101761.84
2022-08-27T11:53:08.729Z,101767.13
2022-08-27T11:55:38.662Z,101765.66
2022-08-27T11:58:24.528Z,101771.25
2022-08-27T12:00:55.273Z,101770.63
2022-08-27T12:03:21.825Z,101763.84
2022-08-27T12:05:54.561Z,101764.56
2022-08-27T12:08:24.098Z,101762.88
2022-08-27T12:11:09.604Z,101764.78
2022-08-27T12:13:53.680Z,101761.91
2022-08-27T12:16:41.903Z,101761.59
2022-08-27T12:19:16.105Z,101737.16
2022-08-27T12:21:48.735Z,101759.91
2022-08-27T12:24:31.485Z,101766.75
2022-08-27T12:27:34.635Z,101755.50
2022-08-27T12:30:22.147Z,101769.25
2022-08-27T12:32:54.412Z,101762.84
2022-08-27T12:35:28.719Z,101757.66
2022-08-27T12:38:32.338Z,101757.44
2022-08-27T12:41:09.157Z,101751.22
2022-08-27T12:43:43.491Z,101753.84
2022-08-27T12:46:19.341Z,101757.34
2022-08-27T12:48:57.048Z,101746.19
2022-08-27T12:51:32.007Z,101757.34
2022-08-27T12:54:24.559Z,101749.44
2022-08-27T12:57:07.213Z,101749.44
2022-08-27T13:00:02.450Z,101746.22
2022-08-27T13:03:01.294Z,101750.28
2022-08-27T13:05:41.111Z,101750.50
2022-08-27T13:08:23.502Z,101750.50
2022-08-27T13:10:50.951Z,101750.69
2022-08-27T13:13:20.051Z,101741.84
2022-08-27T13:15:51.157Z,101738.47
2022-08-27T13:18:18.461Z,101744.81
2022-08-27T13:20:52.603Z,101738.22
2022-08-27T13:23:24.385Z,101741.00
2022-08-27T13:26:21.707Z,101740.16
2022-08-27T13:28:49.646Z,101734.97
2022-08-27T13:31:16.999Z,101738.88
2022-08-27T13:33:46.930Z,101738.03
2022-08-27T13:36:14.878Z,101739.94
2022-08-27T13:38:49.924Z,101737.53
2022-08-27T13:41:29.261Z,101734.50
2022-08-27T13:43:59.356Z,101737.06
2022-08-27T13:46:30.960Z,101740.47
2022-08-27T13:48:59.181Z,101738.84
2022-08-27T13:51:37.339Z,101739.28
2022-08-27T13:54:13.357Z,101740.16
2022-08-27T13:57:03.871Z,101741.44
2022-08-27T13:59:31.313Z,101740.19
2022-08-27T14:02:10.345Z,101747.91
2022-08-27T14:04:40.951Z,101743.44
2022-08-27T14:07:17.485Z,101740.22
2022-08-27T14:09:54.383Z,101732.31
2022-08-27T14:12:35.504Z,101723.31
2022-08-27T14:15:23.284Z,101744.56
2022-08-27T14:17:50.733Z,101735.53
2022-08-27T14:20:19.600Z,101726.16
2022-08-27T14:22:47.115Z,101746.75
2022-08-27T14:25:17.580Z,101734.78
2022-08-27T14:27:54.275Z,101736.47
2022-08-27T14:30:29.642Z,101724.47
2022-08-27T14:33:00.698Z,101742.44
2022-08-27T14:35:29.775Z,101735.81
2022-08-27T14:37:57.791Z,101741.63
2022-08-27T14:40:24.416Z,101750.25
2022-08-27T14:42:51.661Z,101751.94
2022-08-27T14:45:18.636Z,101752.16
2022-08-27T14:47:45.640Z,101755.41
2022-08-27T14:50:15.723Z,101748.09
2022-08-27T14:52:42.455Z,101751.13
2022-08-27T14:55:11.034Z,101743.38
2022-08-27T14:57:38.543Z,101742.53
2022-08-27T15:00:08.098Z,101741.00
2022-08-27T15:02:35.452Z,101733.75
2022-08-27T15:05:07.908Z,101750.25
2022-08-27T15:07:38.875Z,101744.44
2022-08-27T15:10:08.681Z,101748.72
2022-08-27T15:12:35.678Z,101746.59
2022-08-27T15:15:03.679Z,101755.56
2022-08-27T15:17:35.217Z,101759.25
2022-08-27T15:20:13.710Z,101753.28
2022-08-27T15:22:48.476Z,101747.88
2022-08-27T15:25:18.604Z,101749.81
2022-08-27T15:27:45.167Z,101748.72
2022-08-27T15:30:14.223Z,101745.94
2022-08-27T15:32:44.174Z,101746.38
2022-08-27T15:35:14.503Z,101751.47
2022-08-27T15:37:42.533Z,101743.34
2022-08-27T15:40:10.990Z,101744.25
2022-08-27T15:42:37.671Z,101755.81
2022-08-27T15:45:06.833Z,101753.03
2022-08-27T15:47:33.801Z,101748.94
2022-08-27T15:50:00.687Z,101750.03
2022-08-27T15:52:40.490Z,101756.69
2022-08-27T15:55:21.232Z,101739.50
2022-08-27T15:57:47.891Z,101753.66
2022-08-27T16:00:16.495Z,101754.53
2022-08-27T16:02:44.810Z,101752.63
2022-08-27T16:05:12.788Z,101753.25
2022-08-27T16:07:39.679Z,101760.53
2022-08-27T16:10:07.197Z,101751.31
2022-08-27T16:12:33.736Z,101751.97
2022-08-27T16:15:00.959Z,101754.94
2022-08-27T16:17:27.868Z,101752.16
2022-08-27T16:19:54.639Z,101751.09
2022-08-27T16:22:21.252Z,101754.09
2022-08-27T16:24:50.914Z,101749.78
2022-08-27T16:27:17.446Z,101758.34
2022-08-27T16:29:46.515Z,101754.94
2022-08-27T16:32:17.237Z,101753.81
2022-08-27T16:34:55.735Z,101752.75
2022-08-27T16:37:24.241Z,101751.44
2022-08-27T16:39:51.267Z,101754.00
2022-08-27T16:42:17.922Z,101752.94
2022-08-27T16:44:46.948Z,101747.78
2022-08-27T16:47:13.822Z,101732.56
2022-08-27T16:49:58.653Z,101751.41
2022-08-27T16:52:25.362Z,101748.00
2022-08-27T16:54:52.135Z,101742.00
2022-08-27T16:57:19.238Z,101737.91
2022-08-27T16:59:46.045Z,101749.66
2022-08-27T17:02:35.054Z,101746.88
2022-08-27T17:05:30.657Z,101747.09
2022-08-27T17:07:51.007Z,101746.44
2022-08-27T17:10:18.954Z,101743.25
2022-08-27T17:12:48.556Z,101739.34
2022-08-27T17:15:18.724Z,101741.28
2022-08-27T17:17:50.123Z,101752.81
2022-08-27T17:20:17.024Z,101740.16
2022-08-27T17:22:43.697Z,101747.84
2022-08-27T17:25:11.019Z,101745.69
2022-08-27T17:27:37.619Z,101749.09
2022-08-27T17:30:05.267Z,101745.22
2022-08-27T17:32:37.334Z,101734.47
2022-08-27T17:35:10.618Z,101748.16
2022-08-27T17:37:38.217Z,101749.81
2022-08-27T17:40:06.159Z,101749.38
2022-08-27T17:42:33.065Z,101750.19
2022-08-27T17:45:00.125Z,101752.13
2022-08-27T17:47:26.956Z,101718.47
2022-08-27T17:49:56.339Z,101754.66
2022-08-27T17:52:25.429Z,101743.31
2022-08-27T17:54:54.306Z,101749.88
2022-08-27T17:57:27.327Z,101749.44
2022-08-27T17:59:55.552Z,101745.09
2022-08-27T18:02:32.980Z,101759.16
2022-08-27T18:04:59.923Z,101766.59
2022-08-27T18:07:26.730Z,101759.28
2022-08-27T18:09:53.482Z,101768.66
2022-08-27T18:12:24.082Z,101770.53
2022-08-27T18:14:58.883Z,101774.25
2022-08-27T18:17:25.404Z,101779.56
2022-08-27T18:19:54.329Z,101768.13
2022-08-27T18:22:24.658Z,101780.28
2022-08-27T18:24:53.764Z,101784.88
2022-08-27T18:27:28.847Z,101786.16
2022-08-27T18:29:56.663Z,101785.03
2022-08-27T18:32:23.702Z,101781.53
2022-08-27T18:34:51.325Z,101783.84
2022-08-27T18:37:18.612Z,101788.31
2022-08-27T18:39:45.149Z,101791.47
2022-08-27T18:42:12.816Z,101796.56
2022-08-27T18:44:42.982Z,101798.69
2022-08-27T18:47:09.563Z,101803.78
2022-08-27T18:49:36.162Z,101798.59
2022-08-27T18:52:03.023Z,101796.22
2022-08-27T18:54:29.696Z,101806.47
2022-08-27T18:56:56.287Z,101801.31
2022-08-27T18:59:25.746Z,101809.81
2022-08-27T19:01:54.071Z,101802.28
2022-08-27T19:04:21.216Z,101814.91
2022-08-27T19:06:47.807Z,101813.34
2022-08-27T19:09:15.325Z,101799.97
2022-08-27T19:11:42.513Z,101802.53
2022-08-27T19:14:09.262Z,101808.09
2022-08-27T19:16:47.926Z,101816.41
2022-08-27T19:19:17.875Z,101826.81
2022-08-27T19:21:49.242Z,101826.13
2022-08-27T19:24:19.228Z,101826.53
2022-08-27T19:26:48.042Z,101833.97
2022-08-27T19:29:14.743Z,101830.75
2022-08-27T19:31:41.365Z,101831.78
2022-08-27T19:34:08.875Z,101837.69
2022-08-27T19:36:41.774Z,101834.47
2022-08-27T19:39:11.717Z,101839.81
2022-08-27T19:41:38.488Z,101854.75
2022-08-27T19:44:07.550Z,101847.84
2022-08-27T19:46:36.791Z,101842.22
2022-08-27T19:49:04.184Z,101852.22
2022-08-27T19:51:33.284Z,101850.25
2022-08-27T19:54:02.122Z,101854.25
2022-08-27T19:56:28.956Z,101858.56
2022-08-27T19:58:59.850Z,101876.03
2022-08-27T20:01:30.182Z,101871.72
2022-08-27T20:03:58.829Z,101860.81
2022-08-27T20:06:29.668Z,101861.00
2022-08-27T20:08:56.167Z,101849.63
2022-08-27T20:11:23.056Z,101867.13
2022-08-27T20:13:50.605Z,101873.25
2022-08-27T20:16:17.502Z,101859.84
2022-08-27T20:18:44.778Z,101869.66
2022-08-27T20:21:11.439Z,101875.78
2022-08-27T20:23:40.242Z,101865.47
2022-08-27T20:26:06.901Z,101875.84
2022-08-27T20:28:39.478Z,101861.22
2022-08-27T20:31:06.987Z,101865.59
2022-08-27T20:33:34.172Z,101873.50
2022-08-27T20:36:01.546Z,101879.41
2022-08-27T20:38:30.639Z,101879.59
2022-08-27T20:40:57.413Z,101898.66
2022-08-27T20:43:23.999Z,101885.75
2022-08-27T20:45:55.471Z,101895.47
2022-08-27T20:48:22.421Z,101889.44
2022-08-27T20:50:49.199Z,101882.72
2022-08-27T20:53:16.126Z,101900.69
2022-08-27T20:55:43.036Z,101903.47
2022-08-27T20:58:28.416Z,101900.03
2022-08-27T21:00:58.422Z,101894.72
2022-08-27T21:03:25.292Z,101904.06
2022-08-27T21:05:52.611Z,101900.63
2022-08-27T21:08:20.173Z,101902.03
2022-08-27T21:10:51.414Z,101896.19
2022-08-27T21:13:19.845Z,101901.72
2022-08-27T21:15:46.986Z,101904.66
2022-08-27T21:18:13.951Z,101898.81
2022-08-27T21:20:41.026Z,101902.63
2022-08-27T21:23:07.829Z,101905.75
2022-08-27T21:25:37.693Z,101906.09
2022-08-27T21:28:07.464Z,101909.94
2022-08-27T21:30:37.493Z,101914.78
2022-08-27T21:33:04.512Z,101910.66
2022-08-27T21:35:32.845Z,101915.84
2022-08-27T21:38:04.627Z,101920.53
2022-08-27T21:40:33.657Z,101919.50
2022-08-27T21:43:01.889Z,101918.34
2022-08-27T21:45:28.599Z,101919.53
2022-08-27T21:47:55.439Z,101926.28
2022-08-27T21:50:23.471Z,101919.06
2022-08-27T21:52:50.542Z,101920.81
2022-08-27T21:55:18.262Z,101910.31
2022-08-27T21:57:44.947Z,101925.53
2022-08-27T22:00:28.313Z,101925.72
2022-08-27T22:02:56.359Z,101927.59
2022-08-27T22:05:23.560Z,101927.78
2022-08-27T22:07:50.139Z,101924.69
2022-08-27T22:10:24.018Z,101940.06
2022-08-27T22:12:53.796Z,101926.59
2022-08-27T22:15:25.706Z,101935.91
2022-08-27T22:17:52.581Z,101939.16
2022-08-27T22:20:19.564Z,101935.38
2022-08-27T22:22:46.237Z,101942.25
2022-08-27T22:25:13.174Z,101941.91
2022-08-27T22:27:39.742Z,101939.81
2022-08-27T22:30:11.032Z,101937.72
2022-08-27T22:32:44.216Z,101938.44
2022-08-27T22:35:13.304Z,101940.47
2022-08-27T22:37:40.088Z,101939.09
2022-08-27T22:40:19.188Z,101948.91
2022-08-27T22:42:46.211Z,101948.53
2022-08-27T22:45:15.296Z,101946.44
2022-08-27T22:47:44.070Z,101953.50
2022-08-27T22:50:11.198Z,101950.41
2022-08-27T22:52:40.251Z,101944.50
2022-08-27T22:55:07.379Z,101935.31
2022-08-27T22:57:34.839Z,101957.41
2022-08-27T23:00:04.817Z,101961.34
2022-08-27T23:02:31.450Z,101953.03
2022-08-27T23:04:58.019Z,101952.88
2022-08-27T23:07:24.752Z,101936.38
2022-08-27T23:09:53.849Z,101957.31
2022-08-27T23:12:20.612Z,101946.91
2022-08-27T23:14:47.251Z,101962.59
2022-08-27T23:17:14.571Z,101953.06
2022-08-27T23:19:44.067Z,101955.31
2022-08-27T23:22:11.161Z,101953.19
2022-08-27T23:24:57.888Z,101950.22
2022-08-27T23:27:30.503Z,101951.97
2022-08-27T23:30:01.907Z,101953.16
2022-08-27T23:32:28.869Z,101959.88
2022-08-27T23:34:56.348Z,101963.97
2022-08-27T23:37:26.152Z,101957.91
2022-08-27T23:39:53.406Z,101955.47
2022-08-27T23:42:22.121Z,101967.81
2022-08-27T23:44:49.264Z,101958.19
2022-08-27T23:47:17.653Z,101956.91
2022-08-27T23:49:44.821Z,101949.31
2022-08-27T23:52:12.707Z,101960.50
2022-08-27T23:54:41.095Z,101958.59
2022-08-27T23:57:07.852Z,101951.50
2022-08-27T23:59:35.201Z,101959.44
